createdAt,value
2019-04-01T00:00:27.713Z,12.23
2019-04-01T00:02:58.341Z,11.20
2019-04-01T00:05:28.933Z,11.77
2019-04-01T00:07:59.391Z,12.20
2019-04-01T00:10:30.126Z,11.90
2019-04-01T00:13:00.607Z,11.60
2019-04-01T00:15:31.161Z,11.47
2019-04-01T00:18:01.665Z,11.27
2019-04-01T00:20:32.183Z,10.90
2019-04-01T00:23:03.103Z,12.07
2019-04-01T00:25:33.696Z,9.80
2019-04-01T00:28:04.328Z,10.27
2019-04-01T00:30:34.827Z,11.30
2019-04-01T00:33:05.356Z,10.37
2019-04-01T00:35:35.939Z,10.57
2019-04-01T00:38:07.301Z,10.60
2019-04-01T00:40:37.861Z,11.53
2019-04-01T00:43:42.404Z,10.97
2019-04-01T00:46:14.489Z,9.67
2019-04-01T00:48:45.010Z,9.80
2019-04-01T00:51:15.543Z,11.00
2019-04-01T00:53:46.073Z,11.23
2019-04-01T00:56:16.726Z,11.37
2019-04-01T00:58:48.302Z,10.00
2019-04-01T01:01:18.960Z,11.10
2019-04-01T01:03:51.111Z,10.77
2019-04-01T01:06:21.660Z,8.77
2019-04-01T01:08:52.216Z,9.73
2019-04-01T01:11:22.915Z,9.03
2019-04-01T01:13:53.521Z,9.93
2019-04-01T01:16:24.085Z,9.37
2019-04-01T01:18:54.668Z,9.97
2019-04-01T01:21:25.260Z,9.17
2019-04-01T01:23:55.810Z,10.30
2019-04-01T01:26:26.283Z,10.30
2019-04-01T01:28:56.870Z,11.07
2019-04-01T01:31:27.404Z,9.97
2019-04-01T01:33:58.136Z,11.17
2019-04-01T01:36:28.746Z,10.77
2019-04-01T01:39:00.537Z,11.13
2019-04-01T01:41:32.648Z,10.83
2019-04-01T01:44:03.617Z,10.40
2019-04-01T01:46:34.214Z,10.87
2019-04-01T01:49:04.827Z,10.87
2019-04-01T01:51:35.561Z,10.77
2019-04-01T01:54:06.493Z,10.13
2019-04-01T01:56:36.950Z,9.97
2019-04-01T01:59:07.481Z,10.83
2019-04-01T02:01:38.065Z,10.40
2019-04-01T02:04:08.579Z,10.57
2019-04-01T02:06:39.440Z,10.20
2019-04-01T02:09:10.041Z,10.83
2019-04-01T02:11:41.619Z,10.57
2019-04-01T02:14:12.689Z,10.93
2019-04-01T02:16:43.239Z,10.20
2019-04-01T02:19:13.766Z,10.33
2019-04-01T02:21:44.269Z,10.90
2019-04-01T02:24:14.739Z,11.70
2019-04-01T02:26:45.225Z,10.70
2019-04-01T02:29:15.783Z,10.83
2019-04-01T02:31:47.647Z,10.93
2019-04-01T02:34:18.268Z,10.07
2019-04-01T02:36:48.843Z,10.77
2019-04-01T02:39:19.618Z,9.43
2019-04-01T02:41:50.115Z,9.63
2019-04-01T02:44:20.844Z,9.60
2019-04-01T02:46:51.437Z,10.07
2019-04-01T02:49:23.629Z,10.67
2019-04-01T02:51:54.306Z,10.80
2019-04-01T02:54:24.975Z,11.90
2019-04-01T02:56:55.533Z,10.80
2019-04-01T02:59:26.034Z,10.20
2019-04-01T03:01:57.996Z,10.50
2019-04-01T03:04:28.466Z,10.30
2019-04-01T03:06:59.022Z,10.80
2019-04-01T03:09:29.615Z,11.13
2019-04-01T03:12:00.225Z,10.90
2019-04-01T03:14:30.726Z,11.97
2019-04-01T03:17:01.342Z,8.93
2019-04-01T03:19:32.621Z,11.50
2019-04-01T03:22:04.343Z,10.57
2019-04-01T03:24:34.958Z,12.10
2019-04-01T03:27:05.549Z,11.63
2019-04-01T03:29:36.088Z,11.20
2019-04-01T03:32:06.856Z,9.83
2019-04-01T03:34:37.450Z,11.67
2019-04-01T03:37:07.913Z,11.97
2019-04-01T03:39:38.461Z,11.07
2019-04-01T03:42:09.047Z,11.83
2019-04-01T03:44:39.645Z,11.80
2019-04-01T03:47:10.302Z,11.83
2019-04-01T03:49:42.445Z,11.20
2019-04-01T03:52:12.948Z,11.80
2019-04-01T03:54:43.409Z,11.33
2019-04-01T03:57:13.975Z,11.83
2019-04-01T03:59:44.573Z,10.60
2019-04-01T04:02:15.459Z,12.27
2019-04-01T04:04:46.068Z,14.07
2019-04-01T04:07:20.058Z,14.27
2019-04-01T04:09:50.544Z,12.10
2019-04-01T04:12:21.097Z,12.80
2019-04-01T04:14:51.814Z,11.13
2019-04-01T04:17:22.579Z,11.50
2019-04-01T04:19:53.162Z,11.43
2019-04-01T04:22:23.866Z,12.00
2019-04-01T04:24:54.340Z,11.33
2019-04-01T04:27:25.665Z,9.40
2019-04-01T04:29:56.213Z,11.47
2019-04-01T04:32:26.790Z,11.33
2019-04-01T04:34:57.673Z,12.37
2019-04-01T04:37:28.446Z,11.80
2019-04-01T04:39:58.943Z,11.23
2019-04-01T04:42:29.701Z,11.17
2019-04-01T04:45:00.404Z,10.00
2019-04-01T04:47:31.189Z,10.20
2019-04-01T04:50:01.702Z,10.70
2019-04-01T04:52:32.501Z,10.20
2019-04-01T04:55:03.665Z,11.20
2019-04-01T04:57:34.330Z,10.50
2019-04-01T05:00:06.925Z,10.13
2019-04-01T05:02:37.402Z,10.13
2019-04-01T05:05:08.030Z,9.77
2019-04-01T05:07:38.688Z,10.50
2019-04-01T05:10:10.140Z,9.30
2019-04-01T05:12:42.252Z,10.70
2019-04-01T05:15:13.001Z,10.47
2019-04-01T05:17:43.697Z,10.47
2019-04-01T05:20:16.498Z,9.00
2019-04-01T05:22:46.867Z,9.97
2019-04-01T05:25:17.376Z,10.03
2019-04-01T05:27:48.881Z,10.97
2019-04-01T05:30:19.664Z,9.57
2019-04-01T05:32:52.591Z,10.60
2019-04-01T05:35:24.579Z,8.33
2019-04-01T05:37:56.662Z,8.23
2019-04-01T05:40:27.986Z,8.40
2019-04-01T05:42:58.891Z,7.90
2019-04-01T05:45:29.320Z,8.23
2019-04-01T05:48:00.085Z,7.23
2019-04-01T05:50:30.586Z,7.77
2019-04-01T05:53:01.123Z,7.53
2019-04-01T05:55:31.927Z,8.73
2019-04-01T05:58:02.426Z,8.50
2019-04-01T06:00:42.919Z,7.60
2019-04-01T06:03:13.584Z,7.57
2019-04-01T06:05:44.119Z,8.30
2019-04-01T06:08:14.922Z,7.83
2019-04-01T06:10:45.542Z,8.30
2019-04-01T06:13:17.027Z,7.17
2019-04-01T06:15:47.648Z,7.67
2019-04-01T06:18:18.444Z,8.57
2019-04-01T06:20:48.924Z,7.67
2019-04-01T06:23:19.468Z,7.63
2019-04-01T06:25:50.333Z,7.33
2019-04-01T06:28:21.034Z,7.43
2019-04-01T06:30:51.748Z,7.27
2019-04-01T06:33:22.853Z,6.67
2019-04-01T06:35:53.459Z,6.90
2019-04-01T06:38:24.101Z,5.60
2019-04-01T06:40:54.747Z,6.27
2019-04-01T06:43:25.371Z,6.40
2019-04-01T06:45:55.965Z,6.47
2019-04-01T06:48:26.786Z,6.60
2019-04-01T06:50:57.320Z,5.80
2019-04-01T06:53:27.818Z,5.67
2019-04-01T06:55:58.330Z,6.23
2019-04-01T06:58:28.905Z,5.70
2019-04-01T07:00:59.840Z,5.90
2019-04-01T07:03:30.840Z,4.63
2019-04-01T07:06:01.540Z,5.20
2019-04-01T07:08:32.438Z,4.80
2019-04-01T07:11:03.086Z,4.27
2019-04-01T07:13:33.662Z,4.07
2019-04-01T07:16:15.377Z,4.30
2019-04-01T07:18:36.787Z,5.10
2019-04-01T07:21:07.404Z,3.70
2019-04-01T07:23:38.100Z,3.90
2019-04-01T07:26:09.287Z,5.00
2019-04-01T07:28:41.592Z,4.50
2019-04-01T07:31:12.228Z,3.63
2019-04-01T07:33:42.866Z,4.73
2019-04-01T07:36:13.393Z,3.60
2019-04-01T07:38:43.984Z,3.57
2019-04-01T07:41:14.486Z,3.77
2019-04-01T07:43:45.209Z,3.70
2019-04-01T07:46:16.142Z,3.40
2019-04-01T07:48:46.955Z,2.97
2019-04-01T07:51:17.433Z,3.30
2019-04-01T07:53:48.002Z,2.63
2019-04-01T07:56:18.496Z,4.03
2019-04-01T07:58:49.285Z,2.90
2019-04-01T08:01:19.736Z,2.60
2019-04-01T08:03:50.300Z,2.50
2019-04-01T08:06:21.650Z,2.50
2019-04-01T08:08:52.218Z,2.70
2019-04-01T08:11:22.924Z,2.87
2019-04-01T08:13:53.504Z,2.60
2019-04-01T08:16:24.016Z,2.60
2019-04-01T08:18:54.570Z,2.70
2019-04-01T08:21:25.201Z,3.13
2019-04-01T08:23:55.826Z,2.67
2019-04-01T08:26:26.395Z,2.63
2019-04-01T08:28:57.026Z,2.50
2019-04-01T08:31:27.609Z,2.63
2019-04-01T08:33:58.096Z,2.40
2019-04-01T08:36:28.620Z,2.50
2019-04-01T08:38:59.203Z,2.83
2019-04-01T08:41:29.767Z,2.30
2019-04-01T08:44:03.085Z,2.57
2019-04-01T08:46:32.478Z,2.30
2019-04-01T08:49:03.160Z,2.40
2019-04-01T08:51:33.966Z,2.40
2019-04-01T08:54:04.674Z,2.70
2019-04-01T08:56:44.145Z,2.87
2019-04-01T08:59:14.706Z,2.67
2019-04-01T09:01:47.313Z,2.80
2019-04-01T09:04:18.897Z,2.90
2019-04-01T09:06:49.422Z,2.83
2019-04-01T09:09:20.408Z,2.77
2019-04-01T09:11:51.278Z,2.70
2019-04-01T09:14:22.079Z,3.00
2019-04-01T09:16:53.055Z,2.70
2019-04-01T09:19:23.540Z,2.57
2019-04-01T09:21:54.047Z,2.40
2019-04-01T09:24:24.669Z,3.20
2019-04-01T09:26:55.210Z,2.80
2019-04-01T09:29:25.713Z,2.23
2019-04-01T09:31:57.335Z,2.87
2019-04-01T09:34:27.820Z,2.67
2019-04-01T09:36:58.388Z,3.20
2019-04-01T09:39:28.874Z,3.20
2019-04-01T09:41:59.402Z,2.67
2019-04-01T09:44:36.649Z,2.30
2019-04-01T09:47:02.100Z,2.67
2019-04-01T09:49:32.666Z,2.97
2019-04-01T09:52:04.010Z,2.67
2019-04-01T09:54:34.768Z,2.60
2019-04-01T09:57:16.774Z,2.87
2019-04-01T09:59:37.650Z,2.70
2019-04-01T10:02:08.240Z,2.70
2019-04-01T10:04:38.678Z,2.60
2019-04-01T10:07:09.399Z,3.07
2019-04-01T10:09:40.080Z,3.23
2019-04-01T10:12:10.680Z,2.60
2019-04-01T10:14:41.265Z,2.40
2019-04-01T10:17:11.879Z,2.33
2019-04-01T10:19:42.540Z,3.00
2019-04-01T10:22:20.526Z,2.83
2019-04-01T10:24:52.826Z,2.60
2019-04-01T10:27:23.414Z,2.87
2019-04-01T10:29:54.229Z,3.10
2019-04-01T10:32:24.815Z,2.20
2019-04-01T10:34:57.285Z,2.07
2019-04-01T10:37:31.191Z,2.83
2019-04-01T10:40:07.447Z,2.67
2019-04-01T10:42:40.352Z,2.53
2019-04-01T10:45:16.124Z,2.83
2019-04-01T10:47:46.876Z,2.40
2019-04-01T10:50:21.395Z,2.37
2019-04-01T10:52:55.249Z,2.50
2019-04-01T10:55:29.525Z,1.80
2019-04-01T10:58:04.400Z,2.17
2019-04-01T11:00:38.061Z,2.30
2019-04-01T11:03:16.899Z,2.27
2019-04-01T11:05:50.765Z,2.00
2019-04-01T11:08:24.681Z,2.20
2019-04-01T11:10:59.630Z,1.60
2019-04-01T11:13:34.334Z,2.00
2019-04-01T11:16:06.814Z,2.10
2019-04-01T11:18:42.791Z,1.77
2019-04-01T11:21:17.487Z,2.03
2019-04-01T11:23:52.194Z,2.13
2019-04-01T11:26:25.607Z,1.60
2019-04-01T11:29:06.687Z,2.30
2019-04-01T11:31:39.191Z,1.90
2019-04-01T11:34:12.853Z,2.10
2019-04-01T11:36:47.473Z,2.50
2019-04-01T11:39:20.888Z,1.37
2019-04-01T11:41:51.440Z,2.00
2019-04-01T11:44:26.880Z,2.07
2019-04-01T11:46:59.836Z,2.40
2019-04-01T11:49:32.157Z,2.03
2019-04-01T11:52:06.920Z,2.20
2019-04-01T11:54:40.757Z,2.63
2019-04-01T11:57:11.109Z,2.20
2019-04-01T11:59:47.970Z,2.80
2019-04-01T12:02:26.532Z,1.93
2019-04-01T12:04:58.959Z,2.30
2019-04-01T12:07:30.892Z,2.57
2019-04-01T12:10:01.689Z,2.10
2019-04-01T12:12:35.708Z,1.73
2019-04-01T12:15:11.530Z,1.83
2019-04-01T12:17:44.969Z,2.03
2019-04-01T12:20:18.289Z,1.93
2019-04-01T12:22:50.435Z,1.90
2019-04-01T12:25:23.773Z,2.10
2019-04-01T12:27:57.535Z,2.07
2019-04-01T12:30:30.765Z,2.60
2019-04-01T12:33:04.536Z,2.47
2019-04-01T12:35:39.470Z,2.57
2019-04-01T12:38:13.224Z,2.70
2019-04-01T12:40:47.219Z,2.50
2019-04-01T12:43:23.702Z,2.60
2019-04-01T12:45:55.297Z,2.33
2019-04-01T12:48:33.280Z,2.40
2019-04-01T12:51:11.515Z,2.03
2019-04-01T12:53:43.405Z,2.03
2019-04-01T12:56:17.207Z,2.10
2019-04-01T12:58:50.297Z,2.40
2019-04-01T13:01:22.763Z,2.47
2019-04-01T13:03:56.333Z,2.60
2019-04-01T13:06:30.165Z,2.90
2019-04-01T13:09:00.939Z,2.60
2019-04-01T13:11:33.411Z,2.57
2019-04-01T13:14:03.955Z,2.00
2019-04-01T13:16:34.493Z,1.90
2019-04-01T13:19:05.167Z,2.63
2019-04-01T13:21:35.780Z,2.23
2019-04-01T13:24:06.273Z,2.43
2019-04-01T13:26:36.884Z,2.07
2019-04-01T13:29:07.459Z,2.73
2019-04-01T13:31:37.964Z,2.20
2019-04-01T13:34:08.560Z,2.20
2019-04-01T13:36:40.109Z,2.50
2019-04-01T13:39:10.772Z,2.87
2019-04-01T13:41:42.693Z,2.30
2019-04-01T13:44:13.555Z,2.20
2019-04-01T13:46:44.148Z,2.43
2019-04-01T13:49:14.682Z,2.23
2019-04-01T13:51:45.304Z,2.07
2019-04-01T13:54:15.923Z,2.20
2019-04-01T13:56:46.525Z,2.10
2019-04-01T13:59:17.598Z,2.30
2019-04-01T14:01:48.301Z,2.50
2019-04-01T14:04:19.050Z,2.23
2019-04-01T14:06:49.814Z,2.07
2019-04-01T14:09:20.899Z,2.53
2019-04-01T14:11:51.745Z,2.10
2019-04-01T14:14:22.440Z,2.13
2019-04-01T14:16:52.992Z,2.30
2019-04-01T14:19:23.538Z,2.30
2019-04-01T14:21:54.201Z,2.50
2019-04-01T14:24:25.379Z,1.83
2019-04-01T14:26:56.701Z,2.10
2019-04-01T14:29:27.421Z,2.13
2019-04-01T14:31:57.983Z,2.27
2019-04-01T14:34:28.653Z,2.43
2019-04-01T14:36:59.641Z,2.13
2019-04-01T14:39:33.128Z,1.97
2019-04-01T14:42:02.499Z,1.83
2019-04-01T14:44:37.166Z,2.90
2019-04-01T14:47:09.151Z,2.17
2019-04-01T14:49:39.916Z,2.40
2019-04-01T14:52:11.323Z,2.50
2019-04-01T14:54:42.558Z,2.20
2019-04-01T14:57:13.427Z,2.93
2019-04-01T14:59:44.047Z,2.50
2019-04-01T15:02:14.609Z,2.77
2019-04-01T15:04:45.189Z,2.60
2019-04-01T15:07:18.260Z,2.40
2019-04-01T15:09:47.957Z,2.70
2019-04-01T15:12:22.192Z,2.97
2019-04-01T15:14:52.701Z,4.17
2019-04-01T15:17:23.209Z,3.10
2019-04-01T15:19:53.736Z,3.10
2019-04-01T15:22:27.018Z,2.93
2019-04-01T15:24:56.417Z,3.30
2019-04-01T15:27:27.179Z,2.80
2019-04-01T15:29:58.784Z,2.60
2019-04-01T15:32:29.287Z,2.57
2019-04-01T15:35:01.057Z,2.53
2019-04-01T15:37:32.302Z,2.53
2019-04-01T15:40:03.649Z,3.73
2019-04-01T15:42:34.332Z,3.57
2019-04-01T15:45:06.202Z,3.00
2019-04-01T15:47:38.932Z,2.87
2019-04-01T15:50:09.827Z,3.17
2019-04-01T15:52:40.442Z,3.07
2019-04-01T15:55:11.273Z,4.10
2019-04-01T15:57:42.007Z,3.70
2019-04-01T16:00:13.350Z,3.93
2019-04-01T16:02:44.035Z,3.27
2019-04-01T16:05:14.633Z,3.90
2019-04-01T16:07:45.273Z,3.43
2019-04-01T16:10:17.511Z,3.73
2019-04-01T16:12:48.256Z,3.20
2019-04-01T16:15:18.816Z,3.93
2019-04-01T16:17:49.440Z,3.23
2019-04-01T16:20:20.475Z,3.83
2019-04-01T16:22:51.211Z,4.40
2019-04-01T16:25:21.871Z,3.60
2019-04-01T16:27:52.429Z,3.87
2019-04-01T16:30:24.042Z,3.80
2019-04-01T16:32:54.635Z,3.53
2019-04-01T16:35:25.427Z,4.30
2019-04-01T16:37:59.314Z,4.80
2019-04-01T16:40:29.837Z,4.53
2019-04-01T16:43:00.369Z,3.80
2019-04-01T16:45:31.002Z,3.83
2019-04-01T16:48:01.495Z,3.93
2019-04-01T16:50:33.524Z,4.13
2019-04-01T16:53:05.356Z,3.80
2019-04-01T16:55:36.595Z,4.40
2019-04-01T16:58:07.250Z,4.03
2019-04-01T17:00:38.881Z,4.00
2019-04-01T17:03:09.534Z,4.43
2019-04-01T17:05:40.064Z,4.27
2019-04-01T17:08:12.051Z,3.90
2019-04-01T17:10:42.579Z,4.03
2019-04-01T17:13:13.045Z,5.30
2019-04-01T17:15:43.576Z,5.20
2019-04-01T17:18:14.132Z,5.20
2019-04-01T17:20:44.690Z,5.00
2019-04-01T17:23:15.287Z,4.30
2019-04-01T17:25:45.957Z,4.07
2019-04-01T17:28:16.530Z,5.97
2019-04-01T17:30:48.806Z,5.17
2019-04-01T17:33:19.430Z,4.60
2019-04-01T17:35:50.009Z,4.90
2019-04-01T17:38:23.659Z,4.73
2019-04-01T17:42:39.484Z,5.60
2019-04-01T17:45:32.845Z,5.77
2019-04-01T17:48:05.254Z,5.63
2019-04-01T17:50:37.394Z,5.83
2019-04-01T17:53:11.795Z,5.50
2019-04-01T17:55:48.464Z,5.57
2019-04-01T17:58:21.455Z,6.00
2019-04-01T18:03:46.123Z,5.40
2019-04-01T18:06:39.017Z,5.30
2019-04-01T18:09:13.004Z,6.30
2019-04-01T18:11:44.861Z,6.93
2019-04-01T18:14:19.228Z,5.23
2019-04-01T18:16:56.381Z,6.17
2019-04-01T18:19:30.007Z,5.77
2019-04-01T18:22:03.413Z,6.70
2019-04-01T18:24:34.989Z,5.53
2019-04-01T18:27:10.648Z,5.90
2019-04-01T18:29:47.853Z,7.33
2019-04-01T18:32:23.198Z,6.10
2019-04-01T18:35:03.796Z,6.07
2019-04-01T18:37:39.029Z,6.30
2019-04-01T18:40:12.047Z,5.60
2019-04-01T18:42:47.280Z,7.10
2019-04-01T18:45:19.132Z,7.30
2019-04-01T18:47:53.227Z,7.77
2019-04-01T18:50:27.829Z,8.30
2019-04-01T18:53:07.337Z,10.17
2019-04-01T18:55:43.018Z,9.83
2019-04-01T18:58:14.794Z,8.47
2019-04-01T19:00:47.679Z,8.40
2019-04-01T19:03:31.417Z,7.20
2019-04-01T19:06:05.065Z,6.97
2019-04-01T19:08:39.281Z,7.43
2019-04-01T19:11:11.167Z,7.30
2019-04-01T19:13:47.739Z,7.33
2019-04-01T19:16:22.812Z,7.10
2019-04-01T19:18:54.330Z,6.67
2019-04-01T19:21:24.924Z,7.20
2019-04-01T19:26:42.913Z,6.60
2019-04-01T19:29:17.833Z,6.73
2019-04-01T19:31:51.238Z,6.20
2019-04-01T19:34:24.093Z,6.50
2019-04-01T19:37:00.131Z,6.03
2019-04-01T19:39:32.343Z,4.20
2019-04-01T19:42:05.141Z,6.03
2019-04-01T19:44:39.049Z,5.67
2019-04-01T19:47:12.185Z,5.63
2019-04-01T19:49:48.837Z,5.50
2019-04-01T19:52:21.002Z,7.03
2019-04-01T19:54:56.916Z,6.40
2019-04-01T19:57:32.257Z,6.83
2019-04-01T20:00:04.497Z,6.57
2019-04-01T20:02:38.790Z,7.00
2019-04-01T20:05:17.123Z,8.00
2019-04-01T20:07:57.929Z,7.50
2019-04-01T20:10:31.102Z,8.33
2019-04-01T20:13:10.155Z,7.80
2019-04-01T20:15:42.418Z,7.33
2019-04-01T20:18:15.231Z,7.60
2019-04-01T20:20:48.658Z,8.13
2019-04-01T20:23:23.159Z,7.67
2019-04-01T20:25:54.137Z,8.77
2019-04-01T20:28:24.755Z,8.70
2019-04-01T20:30:56.532Z,9.73
2019-04-01T20:33:32.009Z,8.80
2019-04-01T20:36:07.282Z,9.10
2019-04-01T20:38:39.705Z,8.00
2019-04-01T20:41:12.760Z,8.37
2019-04-01T20:43:50.013Z,8.70
2019-04-01T20:46:41.707Z,10.13
2019-04-01T20:49:14.148Z,9.50
2019-04-01T20:51:46.947Z,9.83
2019-04-01T20:54:18.892Z,9.87
2019-04-01T20:56:51.144Z,10.27
2019-04-01T20:59:23.351Z,9.10
2019-04-01T21:01:54.806Z,10.50
2019-04-01T21:04:35.168Z,9.20
2019-04-01T21:07:09.898Z,10.20
2019-04-01T21:09:46.603Z,9.50
2019-04-01T21:12:27.620Z,9.70
2019-04-01T21:15:04.254Z,10.40
2019-04-01T21:17:39.670Z,10.73
2019-04-01T21:20:15.258Z,9.97
2019-04-01T21:22:47.810Z,9.90
2019-04-01T21:25:36.745Z,10.50
2019-04-01T21:28:18.982Z,10.43
2019-04-01T21:30:54.285Z,10.33
2019-04-01T21:33:26.970Z,10.13
2019-04-01T21:35:58.326Z,11.27
2019-04-01T21:38:32.974Z,9.90
2019-04-01T21:41:04.746Z,11.60
2019-04-01T21:43:48.095Z,10.70
2019-04-01T21:46:22.538Z,10.83
2019-04-01T21:48:53.538Z,10.77
2019-04-01T21:51:25.027Z,10.67
2019-04-01T21:53:58.142Z,11.70
2019-04-01T21:56:28.902Z,11.23
2019-04-01T21:58:59.376Z,11.07
2019-04-01T22:01:36.010Z,10.97
2019-04-01T22:04:07.056Z,11.13
2019-04-01T22:06:38.694Z,12.23
2019-04-01T22:09:11.617Z,10.37
2019-04-01T22:11:42.159Z,10.43
2019-04-01T22:14:16.222Z,10.97
2019-04-01T22:16:48.181Z,10.87
2019-04-01T22:19:19.119Z,11.47
2019-04-01T22:21:51.217Z,10.93
2019-04-01T22:24:21.769Z,10.73
2019-04-01T22:26:55.245Z,10.57
2019-04-01T22:29:27.772Z,11.53
2019-04-01T22:32:00.423Z,10.83
2019-04-01T22:34:34.070Z,9.10
2019-04-01T22:37:08.036Z,11.63
2019-04-01T22:39:40.569Z,11.17
2019-04-01T22:42:11.072Z,11.40
2019-04-01T22:44:43.572Z,10.87
2019-04-01T22:47:20.307Z,10.80
2019-04-01T22:49:52.256Z,11.00
2019-04-01T22:52:29.327Z,10.57
2019-04-01T22:55:00.841Z,10.60
2019-04-01T22:57:44.272Z,10.50
2019-04-01T23:00:23.691Z,11.23
2019-04-01T23:02:56.564Z,9.50
2019-04-01T23:05:29.255Z,10.87
2019-04-01T23:07:59.929Z,10.90
2019-04-01T23:10:36.921Z,10.70
2019-04-01T23:13:07.950Z,10.33
2019-04-01T23:15:41.027Z,10.97
2019-04-01T23:18:22.948Z,10.70
2019-04-01T23:20:56.450Z,10.13
2019-04-01T23:23:30.465Z,9.77
2019-04-01T23:26:01.940Z,9.20
2019-04-01T23:28:35.597Z,9.90
2019-04-01T23:31:08.416Z,9.47
2019-04-01T23:33:42.055Z,9.57
2019-04-01T23:36:13.564Z,10.77
2019-04-01T23:38:46.921Z,10.57
2019-04-01T23:41:21.858Z,10.50
2019-04-01T23:43:52.745Z,11.07
2019-04-01T23:46:28.587Z,10.07
2019-04-01T23:49:11.025Z,10.13
2019-04-01T23:51:40.493Z,9.50
2019-04-01T23:54:11.652Z,9.97
2019-04-01T23:56:43.632Z,9.67
2019-04-01T23:59:14.613Z,9.67
